sensor_id;sensor_type;location;lat;lon;timestamp;P1;durP1;ratioP1;P2;durP2;ratioP2
1412;SDS011;701;52.526;13.408;2023-11-19T00:00:33;10.13;;;4.63;;
1412;SDS011;701;52.526;13.408;2023-11-19T00:02:59;10.25;;;4.57;;
1412;SDS011;701;52.526;13.408;2023-11-19T00:05:25;9.27;;;4.22;;
1412;SDS011;701;52.526;13.408;2023-11-19T00:07:52;8.90;;;4.43;;
1412;SDS011;701;52.526;13.408;2023-11-19T00:10:18;11.90;;;5.00;;
1412;SDS011;701;52.526;13.408;2023-11-19T00:12:48;10.55;;;4.85;;
1412;SDS011;701;52.526;13.408;2023-11-19T00:15:15;9.90;;;4.43;;
1412;SDS011;701;52.526;13.408;2023-11-19T00:17:44;9.27;;;4.57;;
1412;SDS011;701;52.526;13.408;2023-11-19T00:20:11;10.00;;;4.82;;
1412;SDS011;701;52.526;13.408;2023-11-19T00:22:38;9.40;;;4.63;;
1412;SDS011;701;52.526;13.408;2023-11-19T00:25:05;9.95;;;4.95;;
1412;SDS011;701;52.526;13.408;2023-11-19T00:27:31;12.02;;;4.90;;
1412;SDS011;701;52.526;13.408;2023-11-19T00:29:57;10.97;;;5.20;;
1412;SDS011;701;52.526;13.408;2023-11-19T00:32:23;10.57;;;4.60;;
1412;SDS011;701;52.526;13.408;2023-11-19T00:34:49;11.25;;;4.95;;
1412;SDS011;701;52.526;13.408;2023-11-19T00:37:15;9.33;;;4.33;;
1412;SDS011;701;52.526;13.408;2023-11-19T00:39:42;9.70;;;4.53;;
1412;SDS011;701;52.526;13.408;2023-11-19T00:42:08;10.55;;;4.70;;
1412;SDS011;701;52.526;13.408;2023-11-19T00:44:35;8.43;;;4.57;;
1412;SDS011;701;52.526;13.408;2023-11-19T00:47:01;10.90;;;5.20;;
1412;SDS011;701;52.526;13.408;2023-11-19T00:49:27;9.37;;;4.73;;
1412;SDS011;701;52.526;13.408;2023-11-19T00:51:53;13.40;;;4.90;;
1412;SDS011;701;52.526;13.408;2023-11-19T00:54:24;10.63;;;4.50;;
1412;SDS011;701;52.526;13.408;2023-11-19T00:56:51;10.93;;;5.13;;
1412;SDS011;701;52.526;13.408;2023-11-19T00:59:17;9.27;;;4.60;;
1412;SDS011;701;52.526;13.408;2023-11-19T01:01:43;9.77;;;4.43;;
1412;SDS011;701;52.526;13.408;2023-11-19T01:04:09;9.50;;;4.60;;
1412;SDS011;701;52.526;13.408;2023-11-19T01:06:35;9.18;;;4.45;;
1412;SDS011;701;52.526;13.408;2023-11-19T01:09:01;12.17;;;4.13;;
1412;SDS011;701;52.526;13.408;2023-11-19T01:11:27;9.45;;;4.05;;
1412;SDS011;701;52.526;13.408;2023-11-19T01:13:53;12.70;;;4.75;;
1412;SDS011;701;52.526;13.408;2023-11-19T01:16:19;8.50;;;3.93;;
1412;SDS011;701;52.526;13.408;2023-11-19T01:18:46;11.82;;;4.88;;
1412;SDS011;701;52.526;13.408;2023-11-19T01:21:13;10.55;;;4.68;;
1412;SDS011;701;52.526;13.408;2023-11-19T01:23:42;10.02;;;4.30;;
1412;SDS011;701;52.526;13.408;2023-11-19T01:26:11;10.10;;;4.55;;
1412;SDS011;701;52.526;13.408;2023-11-19T01:28:38;9.03;;;4.10;;
1412;SDS011;701;52.526;13.408;2023-11-19T01:31:14;13.23;;;4.63;;
1412;SDS011;701;52.526;13.408;2023-11-19T01:33:41;7.90;;;3.60;;
1412;SDS011;701;52.526;13.408;2023-11-19T01:36:07;7.75;;;3.85;;
1412;SDS011;701;52.526;13.408;2023-11-19T01:38:34;10.27;;;3.93;;
1412;SDS011;701;52.526;13.408;2023-11-19T01:41:00;16.75;;;4.10;;
1412;SDS011;701;52.526;13.408;2023-11-19T01:43:38;9.05;;;4.30;;
1412;SDS011;701;52.526;13.408;2023-11-19T01:46:08;10.45;;;4.72;;
1412;SDS011;701;52.526;13.408;2023-11-19T01:48:39;8.80;;;4.20;;
1412;SDS011;701;52.526;13.408;2023-11-19T01:51:08;8.93;;;4.10;;
1412;SDS011;701;52.526;13.408;2023-11-19T01:53:35;7.60;;;3.92;;
1412;SDS011;701;52.526;13.408;2023-11-19T01:56:03;11.05;;;4.00;;
1412;SDS011;701;52.526;13.408;2023-11-19T01:58:35;8.45;;;3.83;;
1412;SDS011;701;52.526;13.408;2023-11-19T02:01:01;8.75;;;4.18;;
1412;SDS011;701;52.526;13.408;2023-11-19T02:03:30;9.03;;;4.20;;
1412;SDS011;701;52.526;13.408;2023-11-19T02:05:58;9.52;;;4.50;;
1412;SDS011;701;52.526;13.408;2023-11-19T02:08:24;9.40;;;4.20;;
1412;SDS011;701;52.526;13.408;2023-11-19T02:10:51;10.40;;;4.13;;
1412;SDS011;701;52.526;13.408;2023-11-19T02:13:20;8.90;;;4.25;;
1412;SDS011;701;52.526;13.408;2023-11-19T02:15:46;8.90;;;4.00;;
1412;SDS011;701;52.526;13.408;2023-11-19T02:20:48;10.20;;;3.78;;
1412;SDS011;701;52.526;13.408;2023-11-19T02:23:15;8.23;;;3.88;;
1412;SDS011;701;52.526;13.408;2023-11-19T02:25:42;14.10;;;3.85;;
1412;SDS011;701;52.526;13.408;2023-11-19T02:28:10;9.93;;;4.00;;
1412;SDS011;701;52.526;13.408;2023-11-19T02:30:37;7.82;;;3.65;;
1412;SDS011;701;52.526;13.408;2023-11-19T02:33:03;9.20;;;3.95;;
1412;SDS011;701;52.526;13.408;2023-11-19T02:35:31;8.77;;;4.20;;
1412;SDS011;701;52.526;13.408;2023-11-19T02:37:57;8.38;;;3.95;;
1412;SDS011;701;52.526;13.408;2023-11-19T02:40:29;8.50;;;3.70;;
1412;SDS011;701;52.526;13.408;2023-11-19T02:42:55;8.02;;;3.50;;
1412;SDS011;701;52.526;13.408;2023-11-19T02:45:24;9.88;;;3.90;;
1412;SDS011;701;52.526;13.408;2023-11-19T02:47:53;10.15;;;4.10;;
1412;SDS011;701;52.526;13.408;2023-11-19T02:50:21;8.02;;;3.45;;
1412;SDS011;701;52.526;13.408;2023-11-19T02:52:51;7.63;;;3.20;;
1412;SDS011;701;52.526;13.408;2023-11-19T02:55:18;7.32;;;3.53;;
1412;SDS011;701;52.526;13.408;2023-11-19T02:57:44;7.72;;;3.67;;
1412;SDS011;701;52.526;13.408;2023-11-19T03:00:17;7.32;;;3.28;;
1412;SDS011;701;52.526;13.408;2023-11-19T03:02:48;7.35;;;3.42;;
1412;SDS011;701;52.526;13.408;2023-11-19T03:05:23;7.03;;;3.30;;
1412;SDS011;701;52.526;13.408;2023-11-19T03:07:50;8.07;;;2.88;;
1412;SDS011;701;52.526;13.408;2023-11-19T03:10:16;7.75;;;3.20;;
1412;SDS011;701;52.526;13.408;2023-11-19T03:12:42;8.30;;;3.63;;
1412;SDS011;701;52.526;13.408;2023-11-19T03:15:09;8.35;;;3.00;;
1412;SDS011;701;52.526;13.408;2023-11-19T03:17:36;7.88;;;3.10;;
1412;SDS011;701;52.526;13.408;2023-11-19T03:20:07;7.63;;;3.15;;
1412;SDS011;701;52.526;13.408;2023-11-19T03:22:38;6.22;;;3.00;;
1412;SDS011;701;52.526;13.408;2023-11-19T03:25:06;6.30;;;2.93;;
1412;SDS011;701;52.526;13.408;2023-11-19T03:27:39;6.05;;;2.80;;
1412;SDS011;701;52.526;13.408;2023-11-19T03:30:07;8.13;;;3.40;;
1412;SDS011;701;52.526;13.408;2023-11-19T03:32:37;10.52;;;3.17;;
1412;SDS011;701;52.526;13.408;2023-11-19T03:35:04;7.60;;;3.45;;
1412;SDS011;701;52.526;13.408;2023-11-19T03:37:32;8.17;;;3.30;;
1412;SDS011;701;52.526;13.408;2023-11-19T03:39:58;8.32;;;3.72;;
1412;SDS011;701;52.526;13.408;2023-11-19T03:42:28;7.63;;;3.45;;
1412;SDS011;701;52.526;13.408;2023-11-19T03:44:55;9.45;;;3.35;;
1412;SDS011;701;52.526;13.408;2023-11-19T03:47:21;7.05;;;3.22;;
1412;SDS011;701;52.526;13.408;2023-11-19T03:49:48;7.03;;;3.10;;
1412;SDS011;701;52.526;13.408;2023-11-19T03:52:14;6.47;;;2.92;;
1412;SDS011;701;52.526;13.408;2023-11-19T03:54:40;8.60;;;3.40;;
1412;SDS011;701;52.526;13.408;2023-11-19T03:57:06;12.10;;;3.87;;
1412;SDS011;701;52.526;13.408;2023-11-19T03:59:32;7.38;;;3.25;;
1412;SDS011;701;52.526;13.408;2023-11-19T04:01:58;7.35;;;3.50;;
1412;SDS011;701;52.526;13.408;2023-11-19T04:04:26;8.23;;;3.27;;
1412;SDS011;701;52.526;13.408;2023-11-19T04:06:53;8.70;;;3.75;;
1412;SDS011;701;52.526;13.408;2023-11-19T04:09:19;9.63;;;4.18;;
1412;SDS011;701;52.526;13.408;2023-11-19T04:11:44;9.98;;;3.97;;
1412;SDS011;701;52.526;13.408;2023-11-19T04:14:12;11.30;;;3.87;;
1412;SDS011;701;52.526;13.408;2023-11-19T04:16:38;7.72;;;3.22;;
1412;SDS011;701;52.526;13.408;2023-11-19T04:19:05;8.95;;;4.25;;
1412;SDS011;701;52.526;13.408;2023-11-19T04:21:31;9.60;;;3.80;;
1412;SDS011;701;52.526;13.408;2023-11-19T04:23:58;8.32;;;3.88;;
1412;SDS011;701;52.526;13.408;2023-11-19T04:26:24;8.03;;;3.90;;
1412;SDS011;701;52.526;13.408;2023-11-19T04:28:50;10.45;;;4.15;;
1412;SDS011;701;52.526;13.408;2023-11-19T04:31:19;8.00;;;3.92;;
1412;SDS011;701;52.526;13.408;2023-11-19T04:33:44;9.53;;;4.10;;
1412;SDS011;701;52.526;13.408;2023-11-19T04:36:10;8.77;;;4.18;;
1412;SDS011;701;52.526;13.408;2023-11-19T04:38:37;8.98;;;4.10;;
1412;SDS011;701;52.526;13.408;2023-11-19T04:41:04;10.60;;;4.70;;
1412;SDS011;701;52.526;13.408;2023-11-19T04:43:31;8.63;;;4.32;;
1412;SDS011;701;52.526;13.408;2023-11-19T04:45:59;10.15;;;4.40;;
1412;SDS011;701;52.526;13.408;2023-11-19T04:48:25;9.33;;;4.33;;
1412;SDS011;701;52.526;13.408;2023-11-19T04:50:51;8.48;;;4.22;;
1412;SDS011;701;52.526;13.408;2023-11-19T04:53:17;10.02;;;5.22;;
1412;SDS011;701;52.526;13.408;2023-11-19T04:55:43;9.93;;;4.75;;
1412;SDS011;701;52.526;13.408;2023-11-19T04:58:09;11.68;;;4.60;;
1412;SDS011;701;52.526;13.408;2023-11-19T05:00:35;11.50;;;5.00;;
1412;SDS011;701;52.526;13.408;2023-11-19T05:03:01;8.70;;;4.40;;
1412;SDS011;701;52.526;13.408;2023-11-19T05:05:27;10.48;;;5.30;;
1412;SDS011;701;52.526;13.408;2023-11-19T05:07:54;8.38;;;4.43;;
1412;SDS011;701;52.526;13.408;2023-11-19T05:10:20;11.43;;;4.57;;
1412;SDS011;701;52.526;13.408;2023-11-19T05:12:46;11.90;;;4.53;;
1412;SDS011;701;52.526;13.408;2023-11-19T05:15:12;8.80;;;4.47;;
1412;SDS011;701;52.526;13.408;2023-11-19T05:17:38;10.63;;;5.25;;
1412;SDS011;701;52.526;13.408;2023-11-19T05:20:04;8.80;;;4.57;;
1412;SDS011;701;52.526;13.408;2023-11-19T05:22:41;10.70;;;4.70;;
1412;SDS011;701;52.526;13.408;2023-11-19T05:25:07;11.52;;;4.60;;
1412;SDS011;701;52.526;13.408;2023-11-19T05:27:34;13.20;;;5.10;;
1412;SDS011;701;52.526;13.408;2023-11-19T05:30:01;11.43;;;5.22;;
1412;SDS011;701;52.526;13.408;2023-11-19T05:32:28;10.60;;;4.68;;
1412;SDS011;701;52.526;13.408;2023-11-19T05:34:53;10.73;;;5.10;;
1412;SDS011;701;52.526;13.408;2023-11-19T05:37:19;14.00;;;5.03;;
1412;SDS011;701;52.526;13.408;2023-11-19T05:39:45;9.68;;;4.82;;
1412;SDS011;701;52.526;13.408;2023-11-19T05:42:11;11.65;;;5.80;;
1412;SDS011;701;52.526;13.408;2023-11-19T05:44:37;10.30;;;5.13;;
1412;SDS011;701;52.526;13.408;2023-11-19T05:47:03;12.15;;;4.65;;
1412;SDS011;701;52.526;13.408;2023-11-19T05:49:29;10.00;;;4.57;;
1412;SDS011;701;52.526;13.408;2023-11-19T05:51:55;10.55;;;4.38;;
1412;SDS011;701;52.526;13.408;2023-11-19T05:54:21;10.07;;;4.82;;
1412;SDS011;701;52.526;13.408;2023-11-19T05:56:47;9.18;;;4.40;;
1412;SDS011;701;52.526;13.408;2023-11-19T05:59:14;10.90;;;4.57;;
1412;SDS011;701;52.526;13.408;2023-11-19T06:01:43;9.30;;;4.72;;
1412;SDS011;701;52.526;13.408;2023-11-19T06:04:09;10.83;;;4.87;;
1412;SDS011;701;52.526;13.408;2023-11-19T06:06:35;9.32;;;4.68;;
1412;SDS011;701;52.526;13.408;2023-11-19T06:09:02;9.52;;;4.63;;
1412;SDS011;701;52.526;13.408;2023-11-19T06:11:28;9.23;;;4.68;;
1412;SDS011;701;52.526;13.408;2023-11-19T06:13:54;10.67;;;4.83;;
1412;SDS011;701;52.526;13.408;2023-11-19T06:16:21;12.85;;;4.47;;
1412;SDS011;701;52.526;13.408;2023-11-19T06:18:47;10.55;;;4.93;;
1412;SDS011;701;52.526;13.408;2023-11-19T06:21:12;10.10;;;4.50;;
1412;SDS011;701;52.526;13.408;2023-11-19T06:23:38;9.32;;;4.60;;
1412;SDS011;701;52.526;13.408;2023-11-19T06:26:04;10.63;;;4.63;;
1412;SDS011;701;52.526;13.408;2023-11-19T06:28:30;9.77;;;4.60;;
1412;SDS011;701;52.526;13.408;2023-11-19T06:30:57;9.27;;;4.70;;
1412;SDS011;701;52.526;13.408;2023-11-19T06:33:23;11.25;;;4.50;;
1412;SDS011;701;52.526;13.408;2023-11-19T06:35:49;9.77;;;4.40;;
1412;SDS011;701;52.526;13.408;2023-11-19T06:38:15;8.60;;;4.43;;
1412;SDS011;701;52.526;13.408;2023-11-19T06:40:41;12.30;;;4.95;;
1412;SDS011;701;52.526;13.408;2023-11-19T06:43:07;9.77;;;4.40;;
1412;SDS011;701;52.526;13.408;2023-11-19T06:45:35;10.85;;;4.53;;
1412;SDS011;701;52.526;13.408;2023-11-19T06:48:04;9.82;;;4.63;;
1412;SDS011;701;52.526;13.408;2023-11-19T06:50:30;10.82;;;4.30;;
1412;SDS011;701;52.526;13.408;2023-11-19T06:52:56;11.43;;;4.80;;
1412;SDS011;701;52.526;13.408;2023-11-19T06:55:22;9.45;;;4.30;;
1412;SDS011;701;52.526;13.408;2023-11-19T06:57:48;9.77;;;4.47;;
1412;SDS011;701;52.526;13.408;2023-11-19T07:00:14;10.10;;;4.15;;
1412;SDS011;701;52.526;13.408;2023-11-19T07:02:40;9.25;;;4.35;;
1412;SDS011;701;52.526;13.408;2023-11-19T07:05:05;7.63;;;3.97;;
1412;SDS011;701;52.526;13.408;2023-11-19T07:07:33;9.85;;;4.13;;
1412;SDS011;701;52.526;13.408;2023-11-19T07:10:00;8.98;;;4.32;;
1412;SDS011;701;52.526;13.408;2023-11-19T07:12:27;8.27;;;4.10;;
1412;SDS011;701;52.526;13.408;2023-11-19T07:14:53;9.37;;;4.20;;
1412;SDS011;701;52.526;13.408;2023-11-19T07:17:20;8.60;;;4.05;;
1412;SDS011;701;52.526;13.408;2023-11-19T07:19:52;8.23;;;4.15;;
1412;SDS011;701;52.526;13.408;2023-11-19T07:22:17;9.13;;;4.40;;
1412;SDS011;701;52.526;13.408;2023-11-19T07:24:43;8.65;;;3.85;;
1412;SDS011;701;52.526;13.408;2023-11-19T07:27:09;8.57;;;3.88;;
1412;SDS011;701;52.526;13.408;2023-11-19T07:29:35;7.82;;;4.40;;
1412;SDS011;701;52.526;13.408;2023-11-19T07:32:01;9.63;;;3.97;;
1412;SDS011;701;52.526;13.408;2023-11-19T07:34:33;8.73;;;3.55;;
1412;SDS011;701;52.526;13.408;2023-11-19T07:37:02;8.20;;;3.90;;
1412;SDS011;701;52.526;13.408;2023-11-19T07:39:28;7.65;;;3.70;;
1412;SDS011;701;52.526;13.408;2023-11-19T07:41:54;8.63;;;4.05;;
1412;SDS011;701;52.526;13.408;2023-11-19T07:44:20;9.17;;;4.50;;
1412;SDS011;701;52.526;13.408;2023-11-19T07:46:46;9.02;;;4.10;;
1412;SDS011;701;52.526;13.408;2023-11-19T07:49:13;9.57;;;3.72;;
1412;SDS011;701;52.526;13.408;2023-11-19T07:51:39;7.68;;;3.75;;
1412;SDS011;701;52.526;13.408;2023-11-19T07:54:05;12.02;;;4.38;;
1412;SDS011;701;52.526;13.408;2023-11-19T07:56:32;9.00;;;4.23;;
1412;SDS011;701;52.526;13.408;2023-11-19T07:59:04;10.45;;;4.18;;
1412;SDS011;701;52.526;13.408;2023-11-19T08:01:30;9.23;;;4.43;;
1412;SDS011;701;52.526;13.408;2023-11-19T08:03:56;9.20;;;4.33;;
1412;SDS011;701;52.526;13.408;2023-11-19T08:06:21;10.27;;;4.80;;
1412;SDS011;701;52.526;13.408;2023-11-19T08:08:47;9.05;;;4.18;;
1412;SDS011;701;52.526;13.408;2023-11-19T08:11:13;7.90;;;3.72;;
1412;SDS011;701;52.526;13.408;2023-11-19T08:13:40;9.05;;;4.10;;
1412;SDS011;701;52.526;13.408;2023-11-19T08:16:06;9.70;;;4.05;;
1412;SDS011;701;52.526;13.408;2023-11-19T08:18:32;10.32;;;4.40;;
1412;SDS011;701;52.526;13.408;2023-11-19T08:20:57;9.77;;;4.22;;
1412;SDS011;701;52.526;13.408;2023-11-19T08:23:25;9.10;;;4.35;;
1412;SDS011;701;52.526;13.408;2023-11-19T08:25:53;8.43;;;4.07;;
1412;SDS011;701;52.526;13.408;2023-11-19T08:28:19;11.10;;;4.43;;
1412;SDS011;701;52.526;13.408;2023-11-19T08:30:45;11.00;;;4.35;;
1412;SDS011;701;52.526;13.408;2023-11-19T08:33:11;9.68;;;4.60;;
1412;SDS011;701;52.526;13.408;2023-11-19T08:35:36;9.55;;;4.35;;
1412;SDS011;701;52.526;13.408;2023-11-19T08:38:02;8.57;;;4.33;;
1412;SDS011;701;52.526;13.408;2023-11-19T08:40:28;10.10;;;4.63;;
1412;SDS011;701;52.526;13.408;2023-11-19T08:42:55;9.20;;;4.43;;
1412;SDS011;701;52.526;13.408;2023-11-19T08:45:21;11.02;;;5.00;;
1412;SDS011;701;52.526;13.408;2023-11-19T08:47:47;9.85;;;4.70;;
1412;SDS011;701;52.526;13.408;2023-11-19T08:50:13;9.93;;;4.63;;
1412;SDS011;701;52.526;13.408;2023-11-19T08:52:39;9.30;;;4.25;;
1412;SDS011;701;52.526;13.408;2023-11-19T08:55:04;8.90;;;4.30;;
1412;SDS011;701;52.526;13.408;2023-11-19T08:57:31;10.02;;;4.47;;
1412;SDS011;701;52.526;13.408;2023-11-19T08:59:58;9.20;;;4.45;;
1412;SDS011;701;52.526;13.408;2023-11-19T09:02:24;10.27;;;4.72;;
1412;SDS011;701;52.526;13.408;2023-11-19T09:04:50;10.70;;;4.90;;
1412;SDS011;701;52.526;13.408;2023-11-19T09:07:15;9.50;;;4.68;;
1412;SDS011;701;52.526;13.408;2023-11-19T09:09:41;10.57;;;4.40;;
1412;SDS011;701;52.526;13.408;2023-11-19T09:12:07;10.13;;;4.22;;
1412;SDS011;701;52.526;13.408;2023-11-19T09:14:33;14.47;;;4.83;;
1412;SDS011;701;52.526;13.408;2023-11-19T09:16:59;9.77;;;4.55;;
1412;SDS011;701;52.526;13.408;2023-11-19T09:19:25;9.80;;;4.32;;
1412;SDS011;701;52.526;13.408;2023-11-19T09:21:54;9.93;;;4.50;;
1412;SDS011;701;52.526;13.408;2023-11-19T09:24:20;9.67;;;4.57;;
1412;SDS011;701;52.526;13.408;2023-11-19T09:26:46;8.20;;;4.22;;
1412;SDS011;701;52.526;13.408;2023-11-19T09:29:11;9.15;;;4.00;;
1412;SDS011;701;52.526;13.408;2023-11-19T09:31:39;8.10;;;4.03;;
1412;SDS011;701;52.526;13.408;2023-11-19T09:34:05;8.25;;;3.95;;
1412;SDS011;701;52.526;13.408;2023-11-19T09:36:31;9.20;;;4.07;;
1412;SDS011;701;52.526;13.408;2023-11-19T09:38:56;8.45;;;4.60;;
1412;SDS011;701;52.526;13.408;2023-11-19T09:41:23;9.73;;;3.88;;
1412;SDS011;701;52.526;13.408;2023-11-19T09:43:49;9.67;;;4.53;;
1412;SDS011;701;52.526;13.408;2023-11-19T09:46:16;11.43;;;4.35;;
1412;SDS011;701;52.526;13.408;2023-11-19T09:48:42;8.43;;;3.65;;
1412;SDS011;701;52.526;13.408;2023-11-19T09:51:10;8.35;;;3.70;;
1412;SDS011;701;52.526;13.408;2023-11-19T09:53:37;9.93;;;3.73;;
1412;SDS011;701;52.526;13.408;2023-11-19T09:56:04;10.75;;;4.13;;
1412;SDS011;701;52.526;13.408;2023-11-19T09:58:30;11.25;;;4.10;;
1412;SDS011;701;52.526;13.408;2023-11-19T10:01:00;14.45;;;4.25;;
1412;SDS011;701;52.526;13.408;2023-11-19T10:03:35;9.68;;;3.75;;
1412;SDS011;701;52.526;13.408;2023-11-19T10:06:08;7.53;;;3.20;;
1412;SDS011;701;52.526;13.408;2023-11-19T10:08:36;10.40;;;4.00;;
1412;SDS011;701;52.526;13.408;2023-11-19T10:11:04;8.82;;;3.70;;
1412;SDS011;701;52.526;13.408;2023-11-19T10:13:31;8.30;;;3.30;;
1412;SDS011;701;52.526;13.408;2023-11-19T10:15:57;9.63;;;3.25;;
1412;SDS011;701;52.526;13.408;2023-11-19T10:18:24;9.77;;;3.30;;
1412;SDS011;701;52.526;13.408;2023-11-19T10:20:53;11.63;;;3.78;;
1412;SDS011;701;52.526;13.408;2023-11-19T10:23:20;12.95;;;3.40;;
1412;SDS011;701;52.526;13.408;2023-11-19T10:25:46;8.13;;;3.03;;
1412;SDS011;701;52.526;13.408;2023-11-19T10:28:12;13.73;;;3.80;;
1412;SDS011;701;52.526;13.408;2023-11-19T10:30:41;12.60;;;3.80;;
1412;SDS011;701;52.526;13.408;2023-11-19T10:33:08;11.85;;;3.75;;
1412;SDS011;701;52.526;13.408;2023-11-19T10:35:56;8.75;;;3.15;;
1412;SDS011;701;52.526;13.408;2023-11-19T10:38:22;6.93;;;3.20;;
1412;SDS011;701;52.526;13.408;2023-11-19T10:40:49;8.68;;;2.97;;
1412;SDS011;701;52.526;13.408;2023-11-19T10:43:19;11.27;;;2.70;;
1412;SDS011;701;52.526;13.408;2023-11-19T10:45:50;12.13;;;3.15;;
1412;SDS011;701;52.526;13.408;2023-11-19T10:48:16;13.90;;;2.92;;
1412;SDS011;701;52.526;13.408;2023-11-19T10:50:43;12.13;;;3.13;;
1412;SDS011;701;52.526;13.408;2023-11-19T10:53:11;9.35;;;3.13;;
1412;SDS011;701;52.526;13.408;2023-11-19T10:55:43;15.65;;;4.57;;
1412;SDS011;701;52.526;13.408;2023-11-19T10:58:12;9.32;;;2.72;;
1412;SDS011;701;52.526;13.408;2023-11-19T11:00:52;15.00;;;3.00;;
1412;SDS011;701;52.526;13.408;2023-11-19T11:03:24;15.50;;;3.33;;
1412;SDS011;701;52.526;13.408;2023-11-19T11:05:51;11.25;;;3.42;;
1412;SDS011;701;52.526;13.408;2023-11-19T11:08:18;12.75;;;3.00;;
1412;SDS011;701;52.526;13.408;2023-11-19T11:10:45;12.70;;;3.35;;
1412;SDS011;701;52.526;13.408;2023-11-19T11:13:22;20.23;;;4.18;;
1412;SDS011;701;52.526;13.408;2023-11-19T11:15:55;12.50;;;2.70;;
1412;SDS011;701;52.526;13.408;2023-11-19T11:18:25;12.65;;;2.75;;
1412;SDS011;701;52.526;13.408;2023-11-19T11:20:52;11.98;;;2.58;;
1412;SDS011;701;52.526;13.408;2023-11-19T11:31:09;23.17;;;6.43;;
1412;SDS011;701;52.526;13.408;2023-11-19T11:34:11;21.98;;;4.20;;
1412;SDS011;701;52.526;13.408;2023-11-19T11:39:14;17.77;;;5.78;;
1412;SDS011;701;52.526;13.408;2023-11-19T11:41:41;14.38;;;2.72;;
1412;SDS011;701;52.526;13.408;2023-11-19T11:44:07;20.73;;;5.33;;
1412;SDS011;701;52.526;13.408;2023-11-19T11:49:02;15.18;;;4.00;;
1412;SDS011;701;52.526;13.408;2023-11-19T11:54:10;21.02;;;3.70;;
1412;SDS011;701;52.526;13.408;2023-11-19T11:57:32;17.83;;;4.23;;
1412;SDS011;701;52.526;13.408;2023-11-19T11:59:46;21.95;;;4.18;;
1412;SDS011;701;52.526;13.408;2023-11-19T12:02:14;16.40;;;3.88;;
1412;SDS011;701;52.526;13.408;2023-11-19T12:04:42;21.58;;;4.38;;
1412;SDS011;701;52.526;13.408;2023-11-19T12:07:09;21.63;;;3.72;;
1412;SDS011;701;52.526;13.408;2023-11-19T12:09:48;20.27;;;4.57;;
1412;SDS011;701;52.526;13.408;2023-11-19T12:12:18;20.90;;;4.50;;
1412;SDS011;701;52.526;13.408;2023-11-19T12:17:43;24.23;;;4.65;;
1412;SDS011;701;52.526;13.408;2023-11-19T12:20:14;16.95;;;5.22;;
1412;SDS011;701;52.526;13.408;2023-11-19T12:22:42;21.10;;;3.67;;
1412;SDS011;701;52.526;13.408;2023-11-19T12:25:09;16.90;;;3.58;;
1412;SDS011;701;52.526;13.408;2023-11-19T12:27:41;24.30;;;4.45;;
1412;SDS011;701;52.526;13.408;2023-11-19T12:30:07;21.05;;;3.72;;
1412;SDS011;701;52.526;13.408;2023-11-19T12:32:40;19.92;;;4.30;;
1412;SDS011;701;52.526;13.408;2023-11-19T12:35:08;25.77;;;3.67;;
1412;SDS011;701;52.526;13.408;2023-11-19T12:37:41;19.80;;;3.83;;
1412;SDS011;701;52.526;13.408;2023-11-19T12:40:14;15.98;;;3.45;;
1412;SDS011;701;52.526;13.408;2023-11-19T12:42:48;15.32;;;3.47;;
1412;SDS011;701;52.526;13.408;2023-11-19T12:45:14;22.23;;;4.00;;
1412;SDS011;701;52.526;13.408;2023-11-19T12:47:42;18.00;;;2.93;;
1412;SDS011;701;52.526;13.408;2023-11-19T12:50:15;15.93;;;3.22;;
1412;SDS011;701;52.526;13.408;2023-11-19T12:52:56;22.38;;;4.10;;
1412;SDS011;701;52.526;13.408;2023-11-19T12:57:56;23.45;;;4.13;;
1412;SDS011;701;52.526;13.408;2023-11-19T13:00:23;22.13;;;4.53;;
1412;SDS011;701;52.526;13.408;2023-11-19T13:02:55;21.65;;;4.95;;
1412;SDS011;701;52.526;13.408;2023-11-19T13:08:02;25.05;;;4.25;;
1412;SDS011;701;52.526;13.408;2023-11-19T13:10:30;20.17;;;4.55;;
1412;SDS011;701;52.526;13.408;2023-11-19T13:13:15;29.27;;;9.00;;
1412;SDS011;701;52.526;13.408;2023-11-19T13:15:40;25.17;;;8.30;;
1412;SDS011;701;52.526;13.408;2023-11-19T13:18:06;29.65;;;8.80;;
1412;SDS011;701;52.526;13.408;2023-11-19T13:20:32;41.33;;;14.07;;
1412;SDS011;701;52.526;13.408;2023-11-19T13:22:58;34.42;;;10.20;;
1412;SDS011;701;52.526;13.408;2023-11-19T13:25:25;23.33;;;5.15;;
1412;SDS011;701;52.526;13.408;2023-11-19T13:27:51;20.15;;;4.97;;
1412;SDS011;701;52.526;13.408;2023-11-19T13:30:17;26.03;;;8.43;;
1412;SDS011;701;52.526;13.408;2023-11-19T13:32:43;30.30;;;9.25;;
1412;SDS011;701;52.526;13.408;2023-11-19T13:35:12;16.40;;;5.85;;
1412;SDS011;701;52.526;13.408;2023-11-19T13:37:38;35.00;;;12.40;;
1412;SDS011;701;52.526;13.408;2023-11-19T13:40:05;25.38;;;5.90;;
1412;SDS011;701;52.526;13.408;2023-11-19T13:42:32;22.73;;;5.40;;
1412;SDS011;701;52.526;13.408;2023-11-19T13:44:58;30.02;;;6.00;;
1412;SDS011;701;52.526;13.408;2023-11-19T13:47:24;17.60;;;4.45;;
1412;SDS011;701;52.526;13.408;2023-11-19T13:49:50;18.13;;;5.30;;
1412;SDS011;701;52.526;13.408;2023-11-19T13:52:15;21.27;;;5.13;;
1412;SDS011;701;52.526;13.408;2023-11-19T13:54:41;28.17;;;5.33;;
1412;SDS011;701;52.526;13.408;2023-11-19T13:57:07;20.15;;;4.50;;
1412;SDS011;701;52.526;13.408;2023-11-19T13:59:32;19.50;;;5.10;;
1412;SDS011;701;52.526;13.408;2023-11-19T14:01:59;26.90;;;4.50;;
1412;SDS011;701;52.526;13.408;2023-11-19T14:04:24;24.77;;;6.35;;
1412;SDS011;701;52.526;13.408;2023-11-19T14:06:50;24.27;;;6.77;;
1412;SDS011;701;52.526;13.408;2023-11-19T14:09:16;23.25;;;5.00;;
1412;SDS011;701;52.526;13.408;2023-11-19T14:11:42;22.95;;;5.28;;
1412;SDS011;701;52.526;13.408;2023-11-19T14:14:08;26.13;;;5.60;;
1412;SDS011;701;52.526;13.408;2023-11-19T14:16:34;33.35;;;7.13;;
1412;SDS011;701;52.526;13.408;2023-11-19T14:19:00;23.05;;;5.20;;
1412;SDS011;701;52.526;13.408;2023-11-19T14:21:26;29.88;;;5.30;;
1412;SDS011;701;52.526;13.408;2023-11-19T14:23:52;26.17;;;8.30;;
1412;SDS011;701;52.526;13.408;2023-11-19T14:26:18;14.18;;;3.90;;
1412;SDS011;701;52.526;13.408;2023-11-19T14:28:44;22.52;;;3.90;;
1412;SDS011;701;52.526;13.408;2023-11-19T14:31:10;19.60;;;3.93;;
1412;SDS011;701;52.526;13.408;2023-11-19T14:33:35;22.20;;;4.25;;
1412;SDS011;701;52.526;13.408;2023-11-19T14:36:03;17.55;;;3.60;;
1412;SDS011;701;52.526;13.408;2023-11-19T14:38:31;21.75;;;3.22;;
1412;SDS011;701;52.526;13.408;2023-11-19T14:40:58;22.20;;;3.70;;
1412;SDS011;701;52.526;13.408;2023-11-19T14:43:24;24.05;;;3.58;;
1412;SDS011;701;52.526;13.408;2023-11-19T14:45:51;17.95;;;3.35;;
1412;SDS011;701;52.526;13.408;2023-11-19T14:48:17;18.52;;;3.83;;
1412;SDS011;701;52.526;13.408;2023-11-19T14:50:43;18.70;;;3.43;;
1412;SDS011;701;52.526;13.408;2023-11-19T14:53:12;22.17;;;3.55;;
1412;SDS011;701;52.526;13.408;2023-11-19T14:55:37;21.83;;;3.28;;
1412;SDS011;701;52.526;13.408;2023-11-19T14:58:03;21.97;;;3.37;;
1412;SDS011;701;52.526;13.408;2023-11-19T15:00:29;20.42;;;3.25;;
1412;SDS011;701;52.526;13.408;2023-11-19T15:02:55;14.20;;;3.20;;
1412;SDS011;701;52.526;13.408;2023-11-19T15:05:21;24.00;;;3.42;;
1412;SDS011;701;52.526;13.408;2023-11-19T15:07:47;17.88;;;3.40;;
1412;SDS011;701;52.526;13.408;2023-11-19T15:10:13;15.98;;;2.70;;
1412;SDS011;701;52.526;13.408;2023-11-19T15:12:39;10.97;;;2.63;;
1412;SDS011;701;52.526;13.408;2023-11-19T15:15:09;19.15;;;3.50;;
1412;SDS011;701;52.526;13.408;2023-11-19T15:17:38;19.23;;;3.50;;
1412;SDS011;701;52.526;13.408;2023-11-19T15:20:04;25.60;;;3.83;;
1412;SDS011;701;52.526;13.408;2023-11-19T15:22:31;21.73;;;3.50;;
1412;SDS011;701;52.526;13.408;2023-11-19T15:24:57;21.35;;;2.95;;
1412;SDS011;701;52.526;13.408;2023-11-19T15:27:23;17.85;;;2.83;;
1412;SDS011;701;52.526;13.408;2023-11-19T15:29:48;18.20;;;3.13;;
1412;SDS011;701;52.526;13.408;2023-11-19T15:32:14;19.70;;;3.17;;
1412;SDS011;701;52.526;13.408;2023-11-19T15:34:40;20.77;;;3.33;;